Monday, February 19, 2018, 10:09 AM GMT
Back to Local

CWZS, Amqui , Que.

Location: , , Canada Lat: 48.467
Local Time: 10:09 AM GMT (10:09 GMT) Lon: -67.433
Time Zone: GMT Elev: 544 ft

Show me the last for .
Show Coded

Time T Td Feel RH Dir Speed Gust Alt SLP Vis Weather Sky Remarks
2018-02-19 09:00 8 5 -1 89 170° 5 - - 30.38 0 None
2018-02-19 08:00 6 3 -1 89 160° 3 - - 30.39 0 None
2018-02-19 07:00 6 4 -1 89 140° 3 - - 30.40 0 None
2018-02-19 06:00 7 4 -2 90 130° 5 - - 30.38 0 None
2018-02-19 05:00 9 7 - 91 160° 2 - - 30.36 0 None
2018-02-19 04:00 10 8 - 90 120° 2 - - 30.35 0 None
2018-02-19 03:00 12 11 - 97 150° 1 - - 30.35 0 None
2018-02-19 02:00 13 11 - 89 140° 2 - - 30.32 0 None
2018-02-19 01:00 18 13 13 81 130° 3 - - 30.28 0 None
2018-02-19 00:00 20 14 16 74 300° 3 - - 30.24 0 None
2018-02-18 23:00 23 15 17 72 290° 5 - - 30.20 0 None
2018-02-18 22:00 24 14 20 65 320° 3 - - 30.14 0 None
2018-02-18 21:00 29 15 23 54 320° 7 - - 30.12 0 None
2018-02-18 20:00 31 16 19 53 280° 12 17 - 30.08 0 None
2018-02-18 19:00 29 16 25 56 340° 3 - - 30.04 0 None
2018-02-18 18:00 29 17 25 60 350° 3 - - 30.02 0 None
2018-02-18 17:00 27 16 - 64 100° 1 - - 30.02 0 None
2018-02-18 16:00 24 15 19 67 130° 5 - - 30.01 0 None
2018-02-18 15:00 20 14 13 75 150° 6 - - 30.01 0 None
2018-02-18 14:00 18 13 10 79 150° 6 - - 30.01 0 None
2018-02-18 13:00 16 12 11 83 170° 3 - - 30.01 0 None

Support USWX by starting your Amazon purchase here.